Terminal Aerodrome Forecast
Issued by NWS

Home | Current Version | Previous Version | Text Only | Print | Product List | Glossary On
Versions: 1 2 3 4 5 6 7 8 9 10 11 12 13 14
727
FTUS46 KPDT 192320
TAFBDN
TAF
KBDN 192320Z 2000/2024 20008KT P6SM SCT045 BKN100
     FM200600 19003KT P6SM FEW040 OVC100
     FM201300 21010KT 4SM -SN BR BKN050 OVC090
     FM201500 18012KT 2SM -SN BR OVC010=

USA.gov is the U.S. government's official web portal to all federal, state and local government web resources and services.